Avon, Montana
Current Conditions -  °F | °C
As of 10:53 PM on Thursday 30 Oct 2014 (Local Time) from KHLN Reporting Station
Clear Clear  
Wind Chill:   Ceiling: Unl
Heat Index:   Visibility: 10mi
Dew Point:   Wind: 0mph
Humidity: 71%   Direction: NA
Pressure: 30.07"   Gusts: NA
Location:  46.59°N, 112.61°W
Report Text: KHLN 310453Z AUTO 00000KT 10SM CLR 07/02 A3007 RMK AO2 SLP208 T00670017
Loading
Personal Weather Stations






























Interactive Weather Map
Tropical Storm Tracking
New forecast layout! Learn more

10-Day Weather Forecast

Advertisements
Track Severe Weather on mobile